Time;durP1;ratioP1;P1;durP2;ratioP2;P2;SDS_P1;SDS_P2;PMS_P1;PMS_P2;Temp;Humidity;BMP_temperature;BMP_pressure;BME280_temperature;BME280_humidity;BME280_pressure;Samples;Min_cycle;Max_cycle;Signal;HPM_P1;HPM_P2
2022/09/02 00:01:16;;;;;;;2.00;1.08;;;;;;;28.69;20.87;98608.13;5007231;28;20061;-78
2022/09/02 00:03:43;;;;;;;2.75;1.02;;;;;;;28.27;21.12;98615.06;5007445;28;20033;-78
2022/09/02 00:06:10;;;;;;;3.75;1.10;;;;;;;28.32;21.22;98606.03;5009891;28;20049;-78
2022/09/02 00:08:37;;;;;;;2.67;0.95;;;;;;;28.18;20.89;98607.28;5009156;28;20037;-78
2022/09/02 00:11:04;;;;;;;1.48;0.95;;;;;;;28.21;21.28;98606.38;5006966;28;20100;-78
2022/09/02 00:13:32;;;;;;;1.65;0.88;;;;;;;27.26;22.27;98612.66;5007967;28;20470;-78
2022/09/02 00:15:58;;;;;;;4.10;1.10;;;;;;;27.22;22.93;98605.53;5006343;28;20034;-78
2022/09/02 00:18:26;;;;;;;2.60;0.85;;;;;;;27.53;22.20;98615.19;5006308;28;20042;-78
2022/09/02 00:20:52;;;;;;;3.05;0.80;;;;;;;27.74;22.20;98602.50;5008910;28;20109;-78
2022/09/02 00:23:19;;;;;;;2.80;1.13;;;;;;;27.90;22.08;98608.09;5008979;28;20033;-78
2022/09/02 00:25:45;;;;;;;1.42;1.33;;;;;;;28.14;21.40;98606.59;5009935;28;20049;-78
2022/09/02 00:28:13;;;;;;;1.55;0.93;;;;;;;28.29;21.28;98606.94;5012554;28;20087;-78
2022/09/02 00:30:40;;;;;;;2.47;0.82;;;;;;;28.20;20.96;98604.00;5002974;28;20026;-78
2022/09/02 00:33:07;;;;;;;1.73;1.10;;;;;;;28.26;20.92;98599.38;5005063;28;20038;-78
2022/09/02 00:35:33;;;;;;;2.33;1.08;;;;;;;28.15;21.32;98602.53;5007383;28;20552;-78
2022/09/02 00:38:00;;;;;;;1.65;1.08;;;;;;;27.93;21.33;98604.38;5006820;28;20062;-78
2022/09/02 00:40:27;;;;;;;1.80;1.02;;;;;;;27.58;21.68;98603.38;5006020;28;20026;-78
2022/09/02 00:42:55;;;;;;;2.20;1.02;;;;;;;27.65;21.87;98591.88;5013128;28;20030;-78
2022/09/02 00:45:21;;;;;;;2.08;1.10;;;;;;;27.61;21.83;98594.00;5007320;28;20019;-78
2022/09/02 00:47:50;;;;;;;1.45;0.80;;;;;;;27.76;21.69;98586.72;5001530;28;20473;-78
2022/09/02 00:50:20;;;;;;;2.55;1.00;;;;;;;27.83;21.14;98592.16;5014544;28;20034;-78
2022/09/02 00:52:52;;;;;;;1.90;1.00;;;;;;;27.98;21.42;98586.88;5013056;28;20026;-78
2022/09/02 00:55:29;;;;;;;1.50;0.90;;;;;;;28.05;21.05;98587.47;5013189;28;20039;-78
2022/09/02 00:58:07;;;;;;;4.10;1.25;;;;;;;27.93;21.52;98584.63;5012433;28;20116;-78
2022/09/02 01:00:38;;;;;;;2.47;1.10;;;;;;;27.79;21.53;98591.47;5022435;28;20075;-78
2022/09/02 01:03:08;;;;;;;2.65;1.00;;;;;;;27.97;20.87;98583.28;5020850;28;20449;-78
2022/09/02 01:05:38;;;;;;;1.77;0.80;;;;;;;28.02;21.07;98585.56;5009505;28;20128;-78
2022/09/02 01:08:06;;;;;;;1.05;0.65;;;;;;;28.01;21.51;98580.34;5009030;28;20046;-78
2022/09/02 01:10:33;;;;;;;2.10;0.90;;;;;;;28.16;21.67;98580.72;5015950;28;20021;-78
2022/09/02 01:13:06;;;;;;;2.30;0.90;;;;;;;28.21;20.85;98585.81;5006171;28;20040;-78
2022/09/02 01:15:36;;;;;;;1.33;0.70;;;;;;;28.00;21.02;98579.59;5006885;28;20030;-77
2022/09/02 01:18:04;;;;;;;0.95;0.70;;;;;;;28.02;21.18;98581.94;5013337;28;20517;-78
2022/09/02 01:20:31;;;;;;;0.98;0.60;;;;;;;27.91;20.80;98582.22;5003856;28;20034;-78
2022/09/02 01:22:57;;;;;;;1.38;0.85;;;;;;;27.72;21.35;98588.06;5005852;28;20070;-78
2022/09/02 01:25:30;;;;;;;1.38;0.80;;;;;;;27.92;21.11;98580.19;5008382;28;20069;-78
2022/09/02 01:28:06;;;;;;;2.83;0.98;;;;;;;27.89;20.95;98590.34;5008074;28;20042;-78
2022/09/02 01:30:34;;;;;;;1.60;0.85;;;;;;;27.93;21.09;98579.78;5017771;28;20069;-77
2022/09/02 01:33:00;;;;;;;0.85;0.63;;;;;;;27.65;21.25;98582.63;5007603;28;20033;-78
2022/09/02 01:35:26;;;;;;;1.83;0.82;;;;;;;27.52;21.58;98579.75;5007968;28;20141;-78
2022/09/02 01:37:56;;;;;;;1.20;0.80;;;;;;;27.51;21.57;98568.91;5006684;28;20058;-77
2022/09/02 01:40:24;;;;;;;1.42;1.00;;;;;;;27.42;21.55;98584.44;5006464;28;20081;-77
2022/09/02 01:42:58;;;;;;;1.52;0.90;;;;;;;27.53;21.62;98583.34;5006852;28;20038;-78
2022/09/02 01:45:25;;;;;;;1.23;0.70;;;;;;;27.73;21.36;98581.16;5007623;28;20137;-78
2022/09/02 01:47:51;;;;;;;2.35;1.13;;;;;;;27.63;21.17;98583.06;5005454;28;20061;-77
2022/09/02 01:50:18;;;;;;;1.50;1.00;;;;;;;27.71;20.96;98586.47;5002716;28;20103;-77
2022/09/02 01:52:44;;;;;;;0.82;0.60;;;;;;;27.82;20.70;98593.38;5007724;28;20113;-77
2022/09/02 01:55:11;;;;;;;1.17;0.60;;;;;;;27.90;20.98;98589.13;5006689;28;20482;-77
2022/09/02 01:57:37;;;;;;;1.35;0.77;;;;;;;27.84;21.25;98588.06;5010226;28;20041;-77
2022/09/02 02:00:06;;;;;;;1.13;0.60;;;;;;;27.71;21.24;98575.97;5006504;28;20508;-77
2022/09/02 02:02:33;;;;;;;0.70;0.60;;;;;;;27.52;21.55;98579.75;5007013;28;20160;-77
2022/09/02 02:04:59;;;;;;;1.13;0.60;;;;;;;27.65;21.29;98580.59;5009718;28;20038;-77
2022/09/02 02:07:25;;;;;;;0.88;0.70;;;;;;;27.59;21.21;98573.09;5007805;28;20034;-77
2022/09/02 02:09:51;;;;;;;1.38;0.82;;;;;;;27.68;20.87;98578.91;5010078;28;20486;-77
2022/09/02 02:12:18;;;;;;;1.70;0.70;;;;;;;27.88;20.89;98577.50;5003365;28;20125;-77
2022/09/02 02:14:44;;;;;;;1.20;0.60;;;;;;;27.81;20.87;98582.56;5010097;28;20100;-77
2022/09/02 02:17:10;;;;;;;1.10;0.70;;;;;;;27.62;20.77;98577.84;5009170;28;20541;-78
2022/09/02 02:19:37;;;;;;;1.55;0.77;;;;;;;27.58;21.31;98571.53;5010299;28;20113;-78
2022/09/02 02:22:03;;;;;;;1.30;0.80;;;;;;;27.71;21.00;98578.78;5011294;28;20075;-78
2022/09/02 02:24:30;;;;;;;1.88;1.00;;;;;;;27.51;20.73;98578.19;5010272;28;20101;-77
2022/09/02 02:26:56;;;;;;;1.23;0.65;;;;;;;27.08;21.00;98581.31;5007952;28;20026;-77
2022/09/02 02:29:22;;;;;;;0.60;0.60;;;;;;;26.96;21.15;98578.41;5004567;28;20102;-77
2022/09/02 02:31:49;;;;;;;1.42;0.90;;;;;;;27.09;21.11;98574.47;5009288;28;20117;-77
2022/09/02 02:34:15;;;;;;;0.95;0.73;;;;;;;27.36;20.98;98577.75;5006248;28;20377;-76
2022/09/02 02:36:42;;;;;;;1.63;0.80;;;;;;;27.25;21.05;98580.06;5008552;28;20489;-77
2022/09/02 02:39:10;;;;;;;1.00;0.75;;;;;;;26.95;21.52;98574.81;5009376;28;20034;-77
2022/09/02 02:41:38;;;;;;;1.40;0.73;;;;;;;27.16;21.26;98563.00;5005296;28;20038;-78
2022/09/02 02:44:05;;;;;;;0.60;0.43;;;;;;;27.09;21.63;98562.38;5006538;28;20454;-78
2022/09/02 02:46:32;;;;;;;1.92;0.60;;;;;;;27.02;21.58;98565.38;5007157;28;20129;-77
2022/09/02 02:49:03;;;;;;;0.70;0.50;;;;;;;26.93;21.93;98565.22;5021372;28;20033;-77
2022/09/02 02:51:29;;;;;;;1.10;0.60;;;;;;;27.02;21.42;98562.56;5008208;28;20528;-78
2022/09/02 02:53:55;;;;;;;0.90;0.50;;;;;;;27.26;20.98;98567.53;5006023;28;20105;-77
2022/09/02 02:56:21;;;;;;;0.60;0.50;;;;;;;27.34;20.77;98565.31;5005945;28;20159;-77
2022/09/02 02:58:47;;;;;;;1.27;0.50;;;;;;;27.05;21.09;98561.69;5010684;28;20034;-77
2022/09/02 03:01:13;;;;;;;2.00;0.60;;;;;;;26.78;21.14;98566.81;5008883;28;20067;-77
2022/09/02 03:03:41;;;;;;;0.98;0.52;;;;;;;26.81;21.55;98566.72;5005944;28;20077;-77
2022/09/02 03:06:07;;;;;;;1.23;0.55;;;;;;;26.99;21.21;98560.63;5007726;28;20437;-77
2022/09/02 03:08:34;;;;;;;1.35;0.70;;;;;;;27.19;20.83;98558.50;5005120;28;20021;-77
2022/09/02 03:11:01;;;;;;;4.88;0.50;;;;;;;27.28;21.20;98559.41;5009638;28;20037;-77
2022/09/02 03:13:27;;;;;;;2.00;0.50;;;;;;;27.10;21.07;98564.75;5004262;28;20103;-77
2022/09/02 03:15:54;;;;;;;2.28;0.52;;;;;;;27.28;20.93;98569.94;5006157;28;20474;-77
2022/09/02 03:18:20;;;;;;;0.57;0.45;;;;;;;27.43;20.59;98568.31;5007780;28;20029;-77
2022/09/02 03:20:46;;;;;;;0.80;0.50;;;;;;;27.40;20.75;98566.38;5008429;28;20045;-77
2022/09/02 03:23:12;;;;;;;1.10;0.60;;;;;;;27.48;20.89;98564.16;5011360;28;20504;-77
2022/09/02 03:25:42;;;;;;;0.75;0.47;;;;;;;27.46;20.30;98564.63;5007366;28;20042;-77
2022/09/02 03:28:09;;;;;;;0.73;0.50;;;;;;;27.42;21.01;98564.69;5008153;28;20044;-77
2022/09/02 03:30:35;;;;;;;0.95;0.47;;;;;;;27.44;20.54;98560.66;5009323;28;20323;-77
2022/09/02 03:33:04;;;;;;;0.60;0.50;;;;;;;27.34;20.67;98566.13;5007191;28;20046;-77
2022/09/02 03:35:31;;;;;;;0.82;0.50;;;;;;;27.50;20.50;98562.47;5007759;28;20064;-77
2022/09/02 03:37:59;;;;;;;0.38;0.30;;;;;;;27.60;20.20;98569.84;5007614;28;20093;-77
2022/09/02 03:40:27;;;;;;;0.60;0.40;;;;;;;27.50;20.28;98567.31;5006761;28;20063;-77
2022/09/02 03:42:53;;;;;;;0.88;0.40;;;;;;;27.49;20.13;98565.75;5011043;28;20034;-77
2022/09/02 03:45:20;;;;;;;0.95;0.38;;;;;;;27.55;20.18;98573.22;5002810;28;20485;-77
2022/09/02 03:47:52;;;;;;;0.75;0.50;;;;;;;27.60;20.02;98575.50;5003880;28;20037;-77
2022/09/02 03:50:21;;;;;;;0.82;0.40;;;;;;;27.42;20.52;98565.94;5008280;28;20050;-77
2022/09/02 03:52:48;;;;;;;0.73;0.38;;;;;;;27.31;20.55;98569.00;5006081;28;20498;-77
2022/09/02 03:55:14;;;;;;;1.27;0.50;;;;;;;27.41;20.41;98567.97;5002431;28;20038;-77
2022/09/02 03:57:40;;;;;;;0.52;0.30;;;;;;;27.11;20.50;98568.38;5020531;28;20069;-77
2022/09/02 04:00:08;;;;;;;1.08;0.50;;;;;;;26.87;21.62;98561.34;5006379;28;20022;-77
2022/09/02 04:02:34;;;;;;;0.75;0.60;;;;;;;25.73;23.36;98580.03;5006156;28;20518;-77
2022/09/02 04:05:01;;;;;;;0.73;0.40;;;;;;;26.06;22.36;98584.53;5006038;28;20038;-77
2022/09/02 04:07:27;;;;;;;0.90;0.60;;;;;;;25.84;23.89;98582.59;5007215;28;20034;-77
2022/09/02 04:09:55;;;;;;;1.58;1.25;;;;;;;26.50;23.19;98587.97;5020773;28;20037;-77
2022/09/02 04:12:21;;;;;;;0.77;0.75;;;;;;;27.00;22.13;98584.78;5004960;28;20103;-77
2022/09/02 04:14:47;;;;;;;1.10;0.70;;;;;;;27.34;21.34;98582.25;5004853;28;20050;-77
2022/09/02 04:17:13;;;;;;;1.85;0.57;;;;;;;26.55;21.47;98588.25;5004980;28;20144;-77
2022/09/02 04:19:40;;;;;;;1.05;0.77;;;;;;;25.88;22.70;98597.41;5003447;28;20033;-77
2022/09/02 04:22:07;;;;;;;0.73;0.68;;;;;;;26.30;22.23;98585.22;5002651;28;20406;-77
2022/09/02 04:24:33;;;;;;;1.52;0.55;;;;;;;26.84;22.00;98594.00;5007374;28;20030;-77
2022/09/02 04:27:00;;;;;;;1.05;0.52;;;;;;;26.63;22.17;98606.56;5006072;28;20636;-77
2022/09/02 04:29:26;;;;;;;0.68;0.50;;;;;;;26.88;21.74;98599.56;5006183;28;20034;-77
2022/09/02 04:31:53;;;;;;;0.75;0.55;;;;;;;27.32;21.82;98596.78;5004148;28;20026;-78
2022/09/02 04:34:19;;;;;;;0.75;0.73;;;;;;;27.63;21.02;98591.53;5003865;28;20577;-77
2022/09/02 04:36:45;;;;;;;0.75;0.60;;;;;;;27.36;21.17;98591.03;5003621;28;20037;-77
2022/09/02 04:39:12;;;;;;;2.05;0.50;;;;;;;27.52;21.30;98596.66;5004512;28;20060;-77
2022/09/02 04:41:38;;;;;;;0.70;0.60;;;;;;;28.13;20.94;98596.53;5008958;28;20058;-78
2022/09/02 04:44:06;;;;;;;0.68;0.52;;;;;;;27.67;21.45;98583.75;5006286;28;20097;-76
2022/09/02 04:46:32;;;;;;;0.88;0.77;;;;;;;26.95;23.16;98599.38;5000201;28;20124;-78
2022/09/02 04:48:58;;;;;;;3.30;0.80;;;;;;;26.40;24.23;98601.09;5010574;28;20525;-77
2022/09/02 04:51:25;;;;;;;2.20;1.10;;;;;;;25.30;26.11;98598.91;5012983;28;20056;-78
2022/09/02 04:53:52;;;;;;;1.70;0.95;;;;;;;25.23;26.85;98599.03;5013290;28;20030;-78
2022/09/02 04:56:22;;;;;;;1.30;0.73;;;;;;;26.71;25.18;98595.94;5011248;28;20405;-78
2022/09/02 04:58:50;;;;;;;2.13;1.17;;;;;;;27.30;24.27;98592.84;5013595;28;20045;-78
2022/09/02 05:01:20;;;;;;;1.67;1.02;;;;;;;27.65;24.07;98602.38;5013195;28;20038;-78
2022/09/02 05:03:47;;;;;;;0.93;0.80;;;;;;;28.36;23.23;98595.41;5010204;28;21021;-78
2022/09/02 05:06:17;;;;;;;3.72;1.23;;;;;;;28.83;22.67;98595.56;4993527;28;20034;-78
2022/09/02 05:08:46;;;;;;;1.20;0.73;;;;;;;29.15;22.48;98589.63;4997142;28;20035;-78
2022/09/02 05:11:17;;;;;;;2.05;0.95;;;;;;;29.06;22.94;98595.16;5014405;28;20066;-77
2022/09/02 05:13:50;;;;;;;0.60;0.60;;;;;;;29.16;22.91;98596.84;5010731;28;20468;-77
2022/09/02 05:16:19;;;;;;;0.93;0.80;;;;;;;29.11;23.33;98601.06;5013782;28;20044;-78
2022/09/02 05:18:45;;;;;;;0.80;0.80;;;;;;;29.24;22.83;98589.75;5013216;28;20066;-78
2022/09/02 05:21:12;;;;;;;2.25;0.73;;;;;;;29.56;22.53;98588.59;5011141;28;20078;-77
2022/09/02 05:23:39;;;;;;;1.48;1.10;;;;;;;29.39;23.54;98587.97;5013044;28;20022;-77
2022/09/02 05:26:06;;;;;;;2.88;2.10;;;;;;;28.53;24.09;98591.25;5005588;28;20065;-78
2022/09/02 05:28:33;;;;;;;1.95;0.98;;;;;;;28.64;24.16;98589.69;5014616;28;20605;-78
2022/09/02 05:31:09;;;;;;;2.28;1.20;;;;;;;28.65;24.17;98584.84;5016539;28;20026;-78
2022/09/02 05:33:39;;;;;;;2.65;1.48;;;;;;;28.48;24.06;98586.16;5034126;28;20044;-78
2022/09/02 05:36:07;;;;;;;1.75;0.90;;;;;;;28.61;24.49;98587.75;5036404;28;20108;-77
2022/09/02 05:38:33;;;;;;;1.90;1.10;;;;;;;28.60;24.54;98582.59;5024250;28;20038;-78
2022/09/02 05:41:06;;;;;;;2.28;1.13;;;;;;;28.75;24.50;98583.72;5016220;28;20041;-78
2022/09/02 05:43:35;;;;;;;3.28;1.20;;;;;;;28.77;24.57;98591.72;5016889;28;20049;-78
2022/09/02 05:46:10;;;;;;;3.05;1.20;;;;;;;29.30;24.08;98576.59;5016290;28;20030;-78
2022/09/02 05:51:23;;;;;;;2.42;1.08;;;;;;;29.87;23.99;98578.19;5008264;28;20454;-79
2022/09/02 05:53:54;;;;;;;1.13;0.93;;;;;;;30.13;23.54;98579.56;5028887;28;20038;-78
2022/09/02 05:56:20;;;;;;;;;;;;;;;30.31;23.28;98578.91;5019354;28;20478;-79
2022/09/02 05:58:47;;;;;;;1.23;1.10;;;;;;;29.71;24.62;98579.13;5016051;28;19917;-79
2022/09/02 06:01:17;;;;;;;1.80;1.17;;;;;;;29.12;24.74;98582.84;5035493;28;20486;-79
2022/09/02 06:03:43;;;;;;;0.85;0.60;;;;;;;29.89;24.38;98579.28;5035889;28;20386;-78
2022/09/02 06:06:09;;;;;;;1.38;1.00;;;;;;;30.30;23.81;98583.75;5023586;28;20540;-79
2022/09/02 06:08:35;;;;;;;1.38;0.95;;;;;;;30.75;23.00;98584.00;4998676;28;20033;-79
2022/09/02 06:11:03;;;;;;;2.60;0.90;;;;;;;29.50;25.17;98577.06;5010519;28;20117;-79
2022/09/02 06:13:33;;;;;;;1.08;0.70;;;;;;;30.10;24.36;98574.84;5015913;28;20541;-79
2022/09/02 06:15:59;;;;;;;1.50;0.77;;;;;;;30.19;24.43;98574.91;5015313;28;20030;-78
2022/09/02 06:18:26;;;;;;;1.90;1.20;;;;;;;30.19;24.47;98577.72;5015611;28;20033;-79
2022/09/02 06:20:52;;;;;;;1.65;1.10;;;;;;;29.52;25.28;98587.94;5015519;28;20050;-79
2022/09/02 06:23:18;;;;;;;2.53;1.10;;;;;;;28.28;26.32;98585.59;5010441;28;20053;-79
2022/09/02 06:25:46;;;;;;;2.05;1.17;;;;;;;27.87;27.85;98587.19;4996123;28;20041;-79
2022/09/02 06:28:13;;;;;;;1.17;0.80;;;;;;;29.17;26.12;98587.91;5014886;28;20030;-79
2022/09/02 06:30:41;;;;;;;1.10;0.75;;;;;;;29.79;26.07;98586.13;5015497;28;20030;-79
2022/09/02 06:33:08;;;;;;;1.88;1.10;;;;;;;30.22;24.58;98593.81;5015647;28;20034;-79
2022/09/02 06:35:40;;;;;;;3.00;1.00;;;;;;;31.18;23.32;98583.00;5015167;28;20113;-78
2022/09/02 06:38:07;;;;;;;1.45;0.98;;;;;;;30.48;24.25;98588.78;5009580;28;20398;-79
2022/09/02 06:40:34;;;;;;;1.63;0.80;;;;;;;31.13;23.91;98588.53;5005947;28;20026;-79
2022/09/02 06:43:00;;;;;;;1.42;0.77;;;;;;;30.06;24.54;98596.84;5014205;28;20506;-79
2022/09/02 06:45:26;;;;;;;2.38;1.10;;;;;;;29.76;25.50;98595.53;5015471;28;20080;-79
2022/09/02 06:47:52;;;;;;;1.10;1.00;;;;;;;29.16;25.75;98606.13;5015592;28;20033;-79
2022/09/02 06:50:19;;;;;;;1.38;0.63;;;;;;;30.60;24.53;98600.00;5015134;28;20398;-78
2022/09/02 06:52:45;;;;;;;1.77;0.80;;;;;;;30.42;25.01;98597.06;5015162;28;20038;-78
2022/09/02 06:55:12;;;;;;;1.65;0.85;;;;;;;31.34;23.40;98607.47;5015303;28;20037;-79
2022/09/02 06:57:38;;;;;;;1.73;0.60;;;;;;;31.09;23.71;98600.00;5014769;28;20068;-79
2022/09/02 07:00:08;;;;;;;0.50;0.50;;;;;;;31.35;24.53;98594.84;5014443;28;20061;-79
2022/09/02 07:02:34;;;;;;;1.55;0.90;;;;;;;31.27;23.87;98594.34;5014061;28;20057;-78
2022/09/02 07:05:10;;;;;;;0.98;0.70;;;;;;;29.89;25.15;98596.28;5014867;28;20033;-79
2022/09/02 07:07:41;;;;;;;1.17;0.98;;;;;;;30.78;24.57;98594.38;5009097;28;20565;-79
2022/09/02 07:10:12;;;;;;;2.38;0.70;;;;;;;31.23;24.27;98592.94;4995371;28;20441;-79
2022/09/02 07:12:39;;;;;;;0.95;0.60;;;;;;;30.86;23.38;98591.25;4995364;28;20030;-79
2022/09/02 07:15:07;;;;;;;1.58;1.00;;;;;;;30.55;25.40;98597.75;5009999;28;20065;-79
2022/09/02 07:17:33;;;;;;;1.42;0.82;;;;;;;30.97;24.74;98589.56;5013816;28;20030;-78
2022/09/02 07:20:00;;;;;;;2.40;0.75;;;;;;;31.99;22.78;98590.78;5014581;28;20046;-79
2022/09/02 07:22:27;;;;;;;1.30;0.85;;;;;;;32.62;21.96;98591.88;5004903;28;20049;-79
2022/09/02 07:24:54;;;;;;;0.88;0.60;;;;;;;32.07;23.14;98592.00;4995193;28;20030;-79
2022/09/02 07:27:20;;;;;;;1.05;0.73;;;;;;;31.91;23.33;98595.16;4995046;28;20027;-79
2022/09/02 07:29:47;;;;;;;0.90;0.65;;;;;;;31.84;23.79;98592.66;4994931;28;20031;-79
2022/09/02 07:32:15;;;;;;;1.38;0.70;;;;;;;31.45;23.63;98592.84;5010765;28;20501;-79
2022/09/02 07:34:41;;;;;;;2.75;0.68;;;;;;;31.55;23.34;98594.41;5029630;28;20036;-79
2022/09/02 07:37:08;;;;;;;0.57;0.52;;;;;;;32.15;22.79;98595.31;5014325;28;20486;-78
2022/09/02 07:39:34;;;;;;;1.17;0.63;;;;;;;31.27;23.39;98602.88;5014038;28;20065;-79
2022/09/02 07:42:00;;;;;;;0.70;0.40;;;;;;;31.58;22.60;98597.09;5014370;28;20044;-79
2022/09/02 07:44:27;;;;;;;1.40;0.65;;;;;;;31.70;23.09;98601.03;5014355;28;20030;-78
2022/09/02 07:46:53;;;;;;;1.10;0.55;;;;;;;30.00;26.66;98593.03;5013580;28;20413;-78
2022/09/02 07:49:20;;;;;;;3.55;0.60;;;;;;;29.48;25.12;98596.53;5014829;28;20456;-78
2022/09/02 07:51:48;;;;;;;1.13;0.73;;;;;;;29.53;27.38;98598.78;5013223;28;20032;-78
2022/09/02 07:54:17;;;;;;;1.08;0.63;;;;;;;27.39;29.44;98593.81;5014237;28;20088;-79
2022/09/02 07:56:43;;;;;;;2.58;0.90;;;;;;;26.92;30.25;98594.63;5014049;28;20033;-79
2022/09/02 07:59:10;;;;;;;1.85;0.75;;;;;;;28.03;28.66;98598.44;5029113;28;20034;-79
2022/09/02 08:01:36;;;;;;;1.10;0.55;;;;;;;28.50;27.20;98594.97;5012922;28;20038;-79
2022/09/02 08:04:03;;;;;;;5.03;0.80;;;;;;;28.41;27.45;98586.38;5013857;28;20496;-79
2022/09/02 08:06:30;;;;;;;1.48;0.77;;;;;;;26.56;29.32;98595.47;5014537;28;20033;-79
2022/09/02 08:08:56;;;;;;;4.50;1.10;;;;;;;26.22;31.07;98594.28;5012526;28;20081;-79
2022/09/02 08:11:23;;;;;;;0.93;0.60;;;;;;;27.70;28.87;98594.13;5024710;28;20397;-79
2022/09/02 08:13:49;;;;;;;2.28;0.80;;;;;;;29.91;26.28;98587.31;5013876;28;20113;-79
2022/09/02 08:16:16;;;;;;;1.48;0.90;;;;;;;28.89;27.00;98594.53;5012773;28;20033;-79
2022/09/02 08:18:42;;;;;;;1.35;0.68;;;;;;;29.28;28.27;98588.38;5013788;28;20104;-79
2022/09/02 08:21:08;;;;;;;2.78;0.60;;;;;;;27.95;28.17;98593.44;5003711;28;20049;-79
2022/09/02 08:23:34;;;;;;;1.67;0.70;;;;;;;27.85;28.09;98583.22;5024440;28;20042;-79
2022/09/02 08:26:01;;;;;;;1.10;0.65;;;;;;;28.15;28.29;98591.22;4994000;28;20157;-79
2022/09/02 08:28:27;;;;;;;1.63;0.70;;;;;;;27.98;28.35;98587.66;4994344;28;20031;-79
2022/09/02 08:30:57;;;;;;;1.10;0.80;;;;;;;29.03;27.20;98596.09;5006690;28;20030;-80
2022/09/02 08:33:24;;;;;;;1.10;0.70;;;;;;;29.23;26.79;98580.47;5013848;28;20037;-79
2022/09/02 08:35:50;;;;;;;0.77;0.60;;;;;;;29.37;26.29;98582.00;5013451;28;20087;-79
2022/09/02 08:38:16;;;;;;;1.45;0.50;;;;;;;30.46;24.28;98580.72;5006346;28;20031;-79
2022/09/02 08:40:44;;;;;;;1.55;0.60;;;;;;;28.10;28.02;98585.38;5013304;28;20022;-79
2022/09/02 08:43:39;;;;;;;1.70;0.68;;;;;;;28.68;26.58;98573.41;5013378;28;20033;-79
2022/09/02 08:46:08;;;;;;;2.05;0.60;;;;;;;27.56;28.06;98577.63;5011190;28;20045;-79
2022/09/02 08:48:40;;;;;;;1.20;0.65;;;;;;;27.30;27.58;98576.72;5013475;28;20029;-79
2022/09/02 08:51:40;;;;;;;4.05;0.80;;;;;;;28.15;27.21;98577.09;4999839;28;20030;-79
2022/09/02 08:54:19;;;;;;;1.13;0.70;;;;;;;28.32;28.91;98572.16;4993476;28;20173;-79
2022/09/02 08:56:45;;;;;;;1.15;0.50;;;;;;;28.12;28.19;98568.75;5005534;28;20055;-79
2022/09/02 08:59:13;;;;;;;1.65;0.70;;;;;;;26.26;29.00;98561.19;5013280;28;20386;-79
2022/09/02 09:01:58;;;;;;;0.57;0.47;;;;;;;24.76;29.87;98570.19;5012726;28;20060;-79
2022/09/02 09:04:55;;;;;;;1.35;0.63;;;;;;;24.65;30.23;98584.38;5017285;28;20043;-79
2022/09/02 09:07:33;;;;;;;0.60;0.50;;;;;;;24.65;29.46;98580.75;5017339;28;20038;-79
2022/09/02 09:10:06;;;;;;;1.05;0.50;;;;;;;25.31;30.42;98566.78;5000632;28;20034;-79
2022/09/02 09:12:38;;;;;;;0.65;0.50;;;;;;;27.31;26.79;98571.84;4999474;28;20037;-79
2022/09/02 09:15:24;;;;;;;0.32;0.32;;;;;;;26.58;26.68;98569.69;5016353;28;20033;-79
2022/09/02 09:17:59;;;;;;;1.25;0.77;;;;;;;28.58;26.37;98568.09;5017042;28;20149;-79
2022/09/02 09:20:28;;;;;;;0.60;0.40;;;;;;;28.27;25.61;98564.25;5017016;28;20040;-79
2022/09/02 09:22:57;;;;;;;2.22;0.50;;;;;;;27.25;25.96;98562.34;5016967;28;20552;-79
2022/09/02 09:25:31;;;;;;;0.95;0.50;;;;;;;27.52;25.68;98568.47;5016770;28;20058;-79
2022/09/02 09:27:58;;;;;;;0.77;0.40;;;;;;;26.67;28.02;98559.41;5016674;28;20034;-79
2022/09/02 09:30:25;;;;;;;0.63;0.40;;;;;;;27.29;27.06;98565.84;5016540;28;20092;-79
2022/09/02 09:32:53;;;;;;;0.38;0.35;;;;;;;27.96;25.78;98564.75;5016692;28;20121;-79
2022/09/02 09:35:21;;;;;;;0.60;0.52;;;;;;;29.10;24.63;98567.59;5016662;28;20092;-79
2022/09/02 09:37:49;;;;;;;1.58;0.52;;;;;;;28.76;25.76;98576.78;5016415;28;20386;-79
2022/09/02 09:40:24;;;;;;;1.27;0.65;;;;;;;28.56;24.83;98567.75;5016560;28;20033;-79
2022/09/02 09:43:02;;;;;;;1.25;0.47;;;;;;;27.80;25.69;98559.19;5016222;28;20033;-79
2022/09/02 09:45:31;;;;;;;1.13;0.55;;;;;;;27.99;26.32;98552.59;5015662;28;20088;-79
2022/09/02 09:48:16;;;;;;;1.30;0.70;;;;;;;28.56;25.56;98551.59;5017022;28;20034;-79
2022/09/02 09:50:47;;;;;;;1.17;0.65;;;;;;;28.06;26.89;98555.19;4997042;28;20470;-79
2022/09/02 09:53:28;;;;;;;0.63;0.40;;;;;;;27.45;26.39;98551.72;4996890;28;20030;-79
2022/09/02 09:55:57;;;;;;;0.68;0.43;;;;;;;26.10;27.59;98545.06;4996805;28;20132;-79
2022/09/02 09:58:42;;;;;;;2.00;0.50;;;;;;;26.50;25.90;98548.56;4996599;28;20113;-79
2022/09/02 10:01:11;;;;;;;1.75;0.55;;;;;;;26.13;26.50;98538.59;5016399;28;20034;-78
2022/09/02 10:03:42;;;;;;;1.73;0.50;;;;;;;26.71;26.56;98542.41;5016192;28;20033;-79
2022/09/02 10:06:22;;;;;;;0.98;0.57;;;;;;;26.45;25.79;98549.88;5016497;28;20386;-79
2022/09/02 10:08:55;;;;;;;0.82;0.50;;;;;;;26.43;26.62;98551.53;5010416;28;20080;-79
2022/09/02 10:11:27;;;;;;;0.68;0.50;;;;;;;26.74;26.21;98559.22;4996224;28;20041;-79
2022/09/02 10:14:09;;;;;;;1.25;0.85;;;;;;;27.67;24.68;98547.06;5003775;28;20032;-79
2022/09/02 10:16:58;;;;;;;1.67;0.50;;;;;;;26.94;25.46;98539.41;5015948;28;20034;-79
2022/09/02 10:19:47;;;;;;;0.65;0.55;;;;;;;27.89;25.05;98545.19;5014223;28;20085;-79
2022/09/02 10:22:47;;;;;;;0.52;0.45;;;;;;;28.14;23.94;98532.38;5011385;28;20521;-79
2022/09/02 10:25:37;;;;;;;2.40;0.47;;;;;;;27.89;22.81;98528.25;5016118;28;20041;-79
2022/09/02 10:28:36;;;;;;;1.17;0.50;;;;;;;27.17;24.17;98527.13;5015069;28;20030;-78
2022/09/02 10:31:28;;;;;;;0.30;0.30;;;;;;;28.85;22.77;98534.50;5015829;28;20041;-79
2022/09/02 10:34:09;;;;;;;0.55;0.40;;;;;;;28.72;23.79;98523.22;5015130;28;20033;-79
2022/09/02 10:37:09;;;;;;;0.75;0.50;;;;;;;29.55;22.21;98516.25;5015549;28;20153;-79
2022/09/02 10:40:12;;;;;;;0.57;0.47;;;;;;;29.27;22.83;98513.22;5015932;28;20096;-79
2022/09/02 10:42:53;;;;;;;0.77;0.50;;;;;;;28.61;22.64;98519.19;5014606;28;20363;-79
2022/09/02 10:45:46;;;;;;;0.75;0.35;;;;;;;29.58;21.25;98518.97;5010923;28;20038;-79
2022/09/02 10:48:18;;;;;;;2.40;0.43;;;;;;;26.94;25.46;98518.88;5015290;28;20064;-79
2022/09/02 10:50:52;;;;;;;1.75;0.43;;;;;;;26.46;25.41;98520.50;5015469;28;20374;-79
2022/09/02 10:53:21;;;;;;;0.95;0.50;;;;;;;28.23;24.91;98529.69;5015376;28;20064;-79
2022/09/02 10:55:51;;;;;;;0.50;0.40;;;;;;;28.41;23.68;98530.69;5015654;28;20049;-79
2022/09/02 10:58:29;;;;;;;0.88;0.38;;;;;;;29.85;20.69;98524.81;5013162;28;20044;-79
2022/09/02 11:00:56;;;;;;;0.98;0.40;;;;;;;30.01;22.63;98523.81;5014950;28;20478;-79
2022/09/02 11:04:00;;;;;;;0.73;0.57;;;;;;;28.67;22.16;98517.34;5015034;28;20033;-79
2022/09/02 11:06:35;;;;;;;2.70;0.50;;;;;;;28.87;23.95;98520.69;5014525;28;20427;-79
2022/09/02 11:09:21;;;;;;;1.52;0.50;;;;;;;28.35;22.75;98517.59;5017743;28;20052;-79
2022/09/02 11:11:59;;;;;;;2.30;0.50;;;;;;;28.72;23.47;98511.13;5014036;28;20403;-79
2022/09/02 11:14:52;;;;;;;0.88;0.40;;;;;;;28.61;21.26;98505.06;5014189;28;20042;-79
2022/09/02 11:17:35;;;;;;;1.50;0.40;;;;;;;26.84;23.61;98503.84;5014750;28;20512;-79
2022/09/02 11:20:25;;;;;;;1.42;0.50;;;;;;;27.78;22.62;98515.72;4997904;28;20110;-79
2022/09/02 11:22:56;;;;;;;1.73;0.45;;;;;;;28.03;23.24;98515.75;4995128;28;20061;-79
2022/09/02 11:25:38;;;;;;;0.80;0.45;;;;;;;29.18;21.49;98493.38;4994721;28;20429;-79
2022/09/02 11:28:31;;;;;;;0.85;0.43;;;;;;;29.89;21.28;98500.00;5013181;28;20455;-79
2022/09/02 11:31:11;;;;;;;1.08;0.60;;;;;;;28.79;22.62;98493.13;4994885;28;20038;-79
2022/09/02 11:34:15;;;;;;;0.40;0.30;;;;;;;28.41;22.31;98490.34;4995240;28;20077;-79
2022/09/02 11:36:42;;;;;;;0.60;0.40;;;;;;;30.07;24.33;98487.97;5007081;28;20109;-79
2022/09/02 11:39:27;;;;;;;0.65;0.30;;;;;;;28.68;22.02;98488.63;5014092;28;20037;-79
2022/09/02 11:42:15;;;;;;;0.28;0.20;;;;;;;29.70;21.85;98483.34;5003588;28;20076;-79
2022/09/02 11:45:12;;;;;;;0.20;0.20;;;;;;;29.24;22.10;98483.03;5014221;28;20513;-79
2022/09/02 11:47:52;;;;;;;0.30;0.30;;;;;;;29.72;22.45;98492.97;5015048;28;20042;-79
2022/09/02 11:50:48;;;;;;;0.65;0.30;;;;;;;28.75;20.64;98481.97;5029296;28;20456;-79
2022/09/02 11:53:23;;;;;;;2.17;0.32;;;;;;;27.84;22.41;98500.59;5014035;28;20060;-79